sensor_id;sensor_type;location;lat;lon;timestamp;P1;durP1;ratioP1;P2;durP2;ratioP2
25213;SDS011;13160;51.834;4.706;2022-08-19T00:00:07;16.92;;;15.18;;
25213;SDS011;13160;51.834;4.706;2022-08-19T00:02:41;17.02;;;15.27;;
25213;SDS011;13160;51.834;4.706;2022-08-19T00:05:16;16.15;;;14.40;;
25213;SDS011;13160;51.834;4.706;2022-08-19T00:07:46;15.77;;;14.18;;
25213;SDS011;13160;51.834;4.706;2022-08-19T00:10:16;16.48;;;14.77;;
25213;SDS011;13160;51.834;4.706;2022-08-19T00:12:46;15.90;;;14.30;;
25213;SDS011;13160;51.834;4.706;2022-08-19T00:15:15;17.23;;;15.35;;
25213;SDS011;13160;51.834;4.706;2022-08-19T00:17:46;15.45;;;13.88;;
25213;SDS011;13160;51.834;4.706;2022-08-19T00:20:17;16.27;;;14.68;;
25213;SDS011;13160;51.834;4.706;2022-08-19T00:22:48;17.92;;;15.80;;
25213;SDS011;13160;51.834;4.706;2022-08-19T00:25:20;16.60;;;14.90;;
25213;SDS011;13160;51.834;4.706;2022-08-19T00:27:56;16.83;;;15.00;;
25213;SDS011;13160;51.834;4.706;2022-08-19T00:30:25;17.10;;;15.38;;
25213;SDS011;13160;51.834;4.706;2022-08-19T00:32:54;16.58;;;14.93;;
25213;SDS011;13160;51.834;4.706;2022-08-19T00:35:23;17.70;;;15.15;;
25213;SDS011;13160;51.834;4.706;2022-08-19T00:37:53;18.90;;;16.85;;
25213;SDS011;13160;51.834;4.706;2022-08-19T00:40:24;17.77;;;15.98;;
25213;SDS011;13160;51.834;4.706;2022-08-19T00:42:53;16.90;;;15.05;;
25213;SDS011;13160;51.834;4.706;2022-08-19T00:45:23;17.65;;;15.73;;
25213;SDS011;13160;51.834;4.706;2022-08-19T00:48:02;17.17;;;14.32;;
25213;SDS011;13160;51.834;4.706;2022-08-19T00:50:40;18.40;;;15.30;;
25213;SDS011;13160;51.834;4.706;2022-08-19T00:53:19;17.45;;;15.65;;
25213;SDS011;13160;51.834;4.706;2022-08-19T00:55:54;16.65;;;14.95;;
25213;SDS011;13160;51.834;4.706;2022-08-19T00:58:26;18.42;;;16.20;;
25213;SDS011;13160;51.834;4.706;2022-08-19T01:00:59;18.13;;;15.88;;
25213;SDS011;13160;51.834;4.706;2022-08-19T01:03:27;18.08;;;15.80;;
25213;SDS011;13160;51.834;4.706;2022-08-19T01:06:16;18.02;;;15.48;;
25213;SDS011;13160;51.834;4.706;2022-08-19T01:08:46;18.15;;;14.80;;
25213;SDS011;13160;51.834;4.706;2022-08-19T01:11:17;17.95;;;16.05;;
25213;SDS011;13160;51.834;4.706;2022-08-19T01:13:45;17.60;;;15.70;;
25213;SDS011;13160;51.834;4.706;2022-08-19T01:16:16;18.02;;;16.23;;
25213;SDS011;13160;51.834;4.706;2022-08-19T01:18:48;19.27;;;17.27;;
25213;SDS011;13160;51.834;4.706;2022-08-19T01:21:18;19.73;;;16.60;;
25213;SDS011;13160;51.834;4.706;2022-08-19T01:23:53;20.67;;;17.08;;
25213;SDS011;13160;51.834;4.706;2022-08-19T01:26:22;21.35;;;19.02;;
25213;SDS011;13160;51.834;4.706;2022-08-19T01:28:55;21.63;;;19.42;;
25213;SDS011;13160;51.834;4.706;2022-08-19T01:31:30;24.30;;;20.88;;
25213;SDS011;13160;51.834;4.706;2022-08-19T01:33:59;27.33;;;22.88;;
25213;SDS011;13160;51.834;4.706;2022-08-19T01:36:30;25.50;;;22.80;;
25213;SDS011;13160;51.834;4.706;2022-08-19T01:39:05;26.50;;;23.67;;
25213;SDS011;13160;51.834;4.706;2022-08-19T01:41:36;27.25;;;24.40;;
25213;SDS011;13160;51.834;4.706;2022-08-19T01:44:05;30.67;;;27.02;;
25213;SDS011;13160;51.834;4.706;2022-08-19T01:46:44;32.67;;;28.73;;
25213;SDS011;13160;51.834;4.706;2022-08-19T01:49:16;31.88;;;26.63;;
25213;SDS011;13160;51.834;4.706;2022-08-19T01:51:47;32.15;;;28.75;;
25213;SDS011;13160;51.834;4.706;2022-08-19T01:54:18;32.88;;;28.45;;
25213;SDS011;13160;51.834;4.706;2022-08-19T01:56:54;31.60;;;28.17;;
25213;SDS011;13160;51.834;4.706;2022-08-19T01:59:26;33.08;;;28.23;;
25213;SDS011;13160;51.834;4.706;2022-08-19T02:01:55;32.30;;;27.65;;
25213;SDS011;13160;51.834;4.706;2022-08-19T02:04:23;32.67;;;28.63;;
25213;SDS011;13160;51.834;4.706;2022-08-19T02:06:52;31.67;;;28.13;;
25213;SDS011;13160;51.834;4.706;2022-08-19T02:09:21;31.33;;;27.98;;
25213;SDS011;13160;51.834;4.706;2022-08-19T02:11:50;35.42;;;29.23;;
25213;SDS011;13160;51.834;4.706;2022-08-19T02:14:19;32.97;;;29.42;;
25213;SDS011;13160;51.834;4.706;2022-08-19T02:16:47;40.40;;;34.28;;
25213;SDS011;13160;51.834;4.706;2022-08-19T02:19:16;41.92;;;34.25;;
25213;SDS011;13160;51.834;4.706;2022-08-19T02:21:44;48.95;;;37.53;;
25213;SDS011;13160;51.834;4.706;2022-08-19T02:24:13;53.22;;;42.88;;
25213;SDS011;13160;51.834;4.706;2022-08-19T02:26:42;60.95;;;45.70;;
25213;SDS011;13160;51.834;4.706;2022-08-19T02:29:11;62.75;;;46.38;;
25213;SDS011;13160;51.834;4.706;2022-08-19T02:31:39;56.95;;;43.88;;
25213;SDS011;13160;51.834;4.706;2022-08-19T02:34:08;56.45;;;43.85;;
25213;SDS011;13160;51.834;4.706;2022-08-19T02:36:36;54.55;;;42.22;;
25213;SDS011;13160;51.834;4.706;2022-08-19T02:39:08;55.40;;;43.17;;
25213;SDS011;13160;51.834;4.706;2022-08-19T02:41:38;58.03;;;42.25;;
25213;SDS011;13160;51.834;4.706;2022-08-19T02:44:08;52.65;;;42.05;;
25213;SDS011;13160;51.834;4.706;2022-08-19T02:46:55;55.25;;;41.10;;
25213;SDS011;13160;51.834;4.706;2022-08-19T02:49:24;54.33;;;41.50;;
25213;SDS011;13160;51.834;4.706;2022-08-19T02:51:52;56.10;;;42.00;;
25213;SDS011;13160;51.834;4.706;2022-08-19T02:54:21;54.55;;;41.75;;
25213;SDS011;13160;51.834;4.706;2022-08-19T02:56:49;58.83;;;44.45;;
25213;SDS011;13160;51.834;4.706;2022-08-19T02:59:19;57.53;;;43.85;;
25213;SDS011;13160;51.834;4.706;2022-08-19T03:01:50;54.40;;;41.33;;
25213;SDS011;13160;51.834;4.706;2022-08-19T03:04:19;65.35;;;45.53;;
25213;SDS011;13160;51.834;4.706;2022-08-19T03:06:49;57.17;;;44.88;;
25213;SDS011;13160;51.834;4.706;2022-08-19T03:09:18;62.70;;;46.88;;
25213;SDS011;13160;51.834;4.706;2022-08-19T03:11:47;69.82;;;48.03;;
25213;SDS011;13160;51.834;4.706;2022-08-19T03:14:19;69.25;;;49.55;;
25213;SDS011;13160;51.834;4.706;2022-08-19T03:16:50;72.05;;;52.10;;
25213;SDS011;13160;51.834;4.706;2022-08-19T03:19:20;73.32;;;52.42;;
25213;SDS011;13160;51.834;4.706;2022-08-19T03:21:49;76.65;;;52.95;;
25213;SDS011;13160;51.834;4.706;2022-08-19T03:24:21;84.63;;;55.55;;
25213;SDS011;13160;51.834;4.706;2022-08-19T03:26:51;81.70;;;55.67;;
25213;SDS011;13160;51.834;4.706;2022-08-19T03:29:25;94.00;;;61.00;;
25213;SDS011;13160;51.834;4.706;2022-08-19T03:31:57;90.53;;;59.05;;
25213;SDS011;13160;51.834;4.706;2022-08-19T03:34:30;90.38;;;58.75;;
25213;SDS011;13160;51.834;4.706;2022-08-19T03:37:03;95.85;;;60.97;;
25213;SDS011;13160;51.834;4.706;2022-08-19T03:39:35;93.47;;;60.78;;
25213;SDS011;13160;51.834;4.706;2022-08-19T03:42:06;96.07;;;61.78;;
25213;SDS011;13160;51.834;4.706;2022-08-19T03:44:58;105.43;;;65.07;;
25213;SDS011;13160;51.834;4.706;2022-08-19T03:47:27;94.82;;;62.17;;
25213;SDS011;13160;51.834;4.706;2022-08-19T03:50:00;100.55;;;61.65;;
25213;SDS011;13160;51.834;4.706;2022-08-19T03:52:28;99.10;;;62.13;;
25213;SDS011;13160;51.834;4.706;2022-08-19T03:54:57;95.78;;;62.05;;
25213;SDS011;13160;51.834;4.706;2022-08-19T03:57:26;98.97;;;62.95;;
25213;SDS011;13160;51.834;4.706;2022-08-19T03:59:58;95.40;;;62.35;;
25213;SDS011;13160;51.834;4.706;2022-08-19T04:02:38;88.30;;;59.35;;
25213;SDS011;13160;51.834;4.706;2022-08-19T04:05:26;92.95;;;60.17;;
25213;SDS011;13160;51.834;4.706;2022-08-19T04:07:56;91.72;;;58.83;;
25213;SDS011;13160;51.834;4.706;2022-08-19T04:10:26;89.32;;;59.75;;
25213;SDS011;13160;51.834;4.706;2022-08-19T04:12:55;82.57;;;56.53;;
25213;SDS011;13160;51.834;4.706;2022-08-19T04:15:25;83.72;;;57.22;;
25213;SDS011;13160;51.834;4.706;2022-08-19T04:17:55;81.57;;;55.50;;
25213;SDS011;13160;51.834;4.706;2022-08-19T04:20:24;80.85;;;54.97;;
25213;SDS011;13160;51.834;4.706;2022-08-19T04:22:53;80.80;;;55.75;;
25213;SDS011;13160;51.834;4.706;2022-08-19T04:25:25;79.22;;;54.25;;
25213;SDS011;13160;51.834;4.706;2022-08-19T04:28:02;79.30;;;53.83;;
25213;SDS011;13160;51.834;4.706;2022-08-19T04:30:37;75.35;;;51.92;;
25213;SDS011;13160;51.834;4.706;2022-08-19T04:33:12;74.50;;;53.30;;
25213;SDS011;13160;51.834;4.706;2022-08-19T04:35:56;79.30;;;53.03;;
25213;SDS011;13160;51.834;4.706;2022-08-19T04:38:26;75.25;;;50.75;;
25213;SDS011;13160;51.834;4.706;2022-08-19T04:40:57;77.72;;;49.83;;
25213;SDS011;13160;51.834;4.706;2022-08-19T04:43:44;70.47;;;51.00;;
25213;SDS011;13160;51.834;4.706;2022-08-19T04:46:16;77.30;;;49.50;;
25213;SDS011;13160;51.834;4.706;2022-08-19T04:49:06;76.25;;;49.00;;
25213;SDS011;13160;51.834;4.706;2022-08-19T04:51:39;73.13;;;47.05;;
25213;SDS011;13160;51.834;4.706;2022-08-19T04:54:11;68.78;;;47.33;;
25213;SDS011;13160;51.834;4.706;2022-08-19T04:57:02;69.65;;;44.78;;
25213;SDS011;13160;51.834;4.706;2022-08-19T04:59:33;64.03;;;44.25;;
25213;SDS011;13160;51.834;4.706;2022-08-19T05:02:11;69.95;;;45.58;;
25213;SDS011;13160;51.834;4.706;2022-08-19T05:04:43;69.47;;;44.83;;
25213;SDS011;13160;51.834;4.706;2022-08-19T05:07:12;70.32;;;45.30;;
25213;SDS011;13160;51.834;4.706;2022-08-19T05:09:42;70.72;;;45.28;;
25213;SDS011;13160;51.834;4.706;2022-08-19T05:12:25;68.18;;;43.78;;
25213;SDS011;13160;51.834;4.706;2022-08-19T05:14:55;69.63;;;45.53;;
25213;SDS011;13160;51.834;4.706;2022-08-19T05:17:26;69.57;;;45.72;;
25213;SDS011;13160;51.834;4.706;2022-08-19T05:20:04;72.40;;;45.13;;
25213;SDS011;13160;51.834;4.706;2022-08-19T05:22:54;71.20;;;43.92;;
25213;SDS011;13160;51.834;4.706;2022-08-19T05:25:22;68.65;;;43.85;;
25213;SDS011;13160;51.834;4.706;2022-08-19T05:27:52;67.75;;;42.80;;
25213;SDS011;13160;51.834;4.706;2022-08-19T05:30:20;70.20;;;42.70;;
25213;SDS011;13160;51.834;4.706;2022-08-19T05:33:11;70.35;;;42.20;;
25213;SDS011;13160;51.834;4.706;2022-08-19T05:35:41;72.85;;;42.75;;
25213;SDS011;13160;51.834;4.706;2022-08-19T05:38:14;65.68;;;41.65;;
25213;SDS011;13160;51.834;4.706;2022-08-19T05:40:43;70.57;;;43.88;;
25213;SDS011;13160;51.834;4.706;2022-08-19T05:43:13;67.43;;;42.17;;
25213;SDS011;13160;51.834;4.706;2022-08-19T05:45:43;74.40;;;43.83;;
25213;SDS011;13160;51.834;4.706;2022-08-19T05:48:14;68.22;;;42.60;;
25213;SDS011;13160;51.834;4.706;2022-08-19T05:50:45;67.40;;;42.05;;
25213;SDS011;13160;51.834;4.706;2022-08-19T05:53:18;64.55;;;41.72;;
25213;SDS011;13160;51.834;4.706;2022-08-19T05:55:55;67.93;;;43.25;;
25213;SDS011;13160;51.834;4.706;2022-08-19T05:58:24;63.95;;;42.65;;
25213;SDS011;13160;51.834;4.706;2022-08-19T06:00:53;66.03;;;43.72;;
25213;SDS011;13160;51.834;4.706;2022-08-19T06:03:24;64.80;;;43.28;;
25213;SDS011;13160;51.834;4.706;2022-08-19T06:05:54;63.35;;;42.88;;
25213;SDS011;13160;51.834;4.706;2022-08-19T06:08:24;60.70;;;43.65;;
25213;SDS011;13160;51.834;4.706;2022-08-19T06:11:11;59.35;;;41.50;;
25213;SDS011;13160;51.834;4.706;2022-08-19T06:13:45;63.10;;;42.95;;
25213;SDS011;13160;51.834;4.706;2022-08-19T06:16:24;61.13;;;42.25;;
25213;SDS011;13160;51.834;4.706;2022-08-19T06:18:55;63.00;;;43.53;;
25213;SDS011;13160;51.834;4.706;2022-08-19T06:21:27;66.10;;;43.47;;
25213;SDS011;13160;51.834;4.706;2022-08-19T06:23:58;61.28;;;43.17;;
25213;SDS011;13160;51.834;4.706;2022-08-19T06:26:26;63.83;;;42.38;;
25213;SDS011;13160;51.834;4.706;2022-08-19T06:28:55;57.45;;;41.40;;
25213;SDS011;13160;51.834;4.706;2022-08-19T06:31:25;60.13;;;40.60;;
25213;SDS011;13160;51.834;4.706;2022-08-19T06:33:59;55.05;;;40.65;;
25213;SDS011;13160;51.834;4.706;2022-08-19T06:36:30;62.78;;;41.63;;
25213;SDS011;13160;51.834;4.706;2022-08-19T06:39:04;59.38;;;40.50;;
25213;SDS011;13160;51.834;4.706;2022-08-19T06:41:35;58.10;;;39.88;;
25213;SDS011;13160;51.834;4.706;2022-08-19T06:44:16;60.00;;;40.45;;
25213;SDS011;13160;51.834;4.706;2022-08-19T06:46:47;55.83;;;38.03;;
25213;SDS011;13160;51.834;4.706;2022-08-19T06:49:21;53.53;;;38.80;;
25213;SDS011;13160;51.834;4.706;2022-08-19T06:51:53;58.30;;;40.05;;
25213;SDS011;13160;51.834;4.706;2022-08-19T06:54:23;54.33;;;38.10;;
25213;SDS011;13160;51.834;4.706;2022-08-19T06:56:56;58.15;;;38.47;;
25213;SDS011;13160;51.834;4.706;2022-08-19T06:59:28;55.25;;;39.35;;
25213;SDS011;13160;51.834;4.706;2022-08-19T07:02:00;52.75;;;38.30;;
25213;SDS011;13160;51.834;4.706;2022-08-19T07:04:34;50.35;;;36.05;;
25213;SDS011;13160;51.834;4.706;2022-08-19T07:07:08;50.53;;;36.45;;
25213;SDS011;13160;51.834;4.706;2022-08-19T07:09:46;51.63;;;35.67;;
25213;SDS011;13160;51.834;4.706;2022-08-19T07:12:26;46.58;;;33.95;;
25213;SDS011;13160;51.834;4.706;2022-08-19T07:15:01;46.78;;;32.33;;
25213;SDS011;13160;51.834;4.706;2022-08-19T07:17:30;40.08;;;30.50;;
25213;SDS011;13160;51.834;4.706;2022-08-19T07:20:06;40.22;;;30.35;;
25213;SDS011;13160;51.834;4.706;2022-08-19T07:22:36;37.33;;;28.92;;
25213;SDS011;13160;51.834;4.706;2022-08-19T07:25:05;43.10;;;30.65;;
25213;SDS011;13160;51.834;4.706;2022-08-19T07:27:35;40.42;;;28.77;;
25213;SDS011;13160;51.834;4.706;2022-08-19T07:30:05;37.15;;;26.85;;
25213;SDS011;13160;51.834;4.706;2022-08-19T07:32:38;37.85;;;27.00;;
25213;SDS011;13160;51.834;4.706;2022-08-19T07:35:09;37.75;;;28.27;;
25213;SDS011;13160;51.834;4.706;2022-08-19T07:37:37;39.38;;;26.88;;
25213;SDS011;13160;51.834;4.706;2022-08-19T07:40:10;37.03;;;26.45;;
25213;SDS011;13160;51.834;4.706;2022-08-19T07:42:39;38.20;;;26.15;;
25213;SDS011;13160;51.834;4.706;2022-08-19T07:45:09;35.30;;;25.13;;
25213;SDS011;13160;51.834;4.706;2022-08-19T07:47:37;37.00;;;25.45;;
25213;SDS011;13160;51.834;4.706;2022-08-19T07:50:18;34.92;;;24.70;;
25213;SDS011;13160;51.834;4.706;2022-08-19T07:52:48;32.38;;;24.17;;
25213;SDS011;13160;51.834;4.706;2022-08-19T07:55:19;33.42;;;22.27;;
25213;SDS011;13160;51.834;4.706;2022-08-19T07:58:09;31.13;;;21.85;;
25213;SDS011;13160;51.834;4.706;2022-08-19T08:00:40;27.70;;;21.88;;
25213;SDS011;13160;51.834;4.706;2022-08-19T08:03:08;27.95;;;20.85;;
25213;SDS011;13160;51.834;4.706;2022-08-19T08:05:38;32.03;;;22.83;;
25213;SDS011;13160;51.834;4.706;2022-08-19T08:08:24;30.67;;;21.42;;
25213;SDS011;13160;51.834;4.706;2022-08-19T08:11:14;29.60;;;21.15;;
25213;SDS011;13160;51.834;4.706;2022-08-19T08:13:49;28.63;;;20.45;;
25213;SDS011;13160;51.834;4.706;2022-08-19T08:16:29;32.55;;;20.90;;
25213;SDS011;13160;51.834;4.706;2022-08-19T08:19:05;27.35;;;20.27;;
25213;SDS011;13160;51.834;4.706;2022-08-19T08:21:52;29.15;;;19.75;;
25213;SDS011;13160;51.834;4.706;2022-08-19T08:24:21;28.60;;;20.30;;
25213;SDS011;13160;51.834;4.706;2022-08-19T08:26:54;25.42;;;19.58;;
25213;SDS011;13160;51.834;4.706;2022-08-19T08:29:23;30.00;;;19.67;;
25213;SDS011;13160;51.834;4.706;2022-08-19T08:32:00;26.33;;;19.27;;
25213;SDS011;13160;51.834;4.706;2022-08-19T08:34:39;22.23;;;18.45;;
25213;SDS011;13160;51.834;4.706;2022-08-19T08:37:09;26.33;;;18.80;;
25213;SDS011;13160;51.834;4.706;2022-08-19T08:39:41;23.65;;;18.63;;
25213;SDS011;13160;51.834;4.706;2022-08-19T08:42:11;24.38;;;18.50;;
25213;SDS011;13160;51.834;4.706;2022-08-19T08:44:48;23.48;;;18.00;;
25213;SDS011;13160;51.834;4.706;2022-08-19T08:47:26;25.55;;;17.58;;
25213;SDS011;13160;51.834;4.706;2022-08-19T08:50:08;21.55;;;16.65;;
25213;SDS011;13160;51.834;4.706;2022-08-19T08:52:53;19.58;;;15.85;;
25213;SDS011;13160;51.834;4.706;2022-08-19T08:55:26;19.83;;;15.20;;
25213;SDS011;13160;51.834;4.706;2022-08-19T08:58:03;18.73;;;15.55;;
25213;SDS011;13160;51.834;4.706;2022-08-19T09:00:35;15.65;;;13.18;;
25213;SDS011;13160;51.834;4.706;2022-08-19T09:03:16;23.90;;;14.80;;
25213;SDS011;13160;51.834;4.706;2022-08-19T09:05:51;19.45;;;15.20;;
25213;SDS011;13160;51.834;4.706;2022-08-19T09:08:33;20.33;;;15.07;;
25213;SDS011;13160;51.834;4.706;2022-08-19T09:11:14;18.30;;;13.57;;
25213;SDS011;13160;51.834;4.706;2022-08-19T09:14:10;18.98;;;14.23;;
25213;SDS011;13160;51.834;4.706;2022-08-19T09:17:15;20.60;;;13.80;;
25213;SDS011;13160;51.834;4.706;2022-08-19T09:19:49;19.13;;;13.48;;
25213;SDS011;13160;51.834;4.706;2022-08-19T09:22:20;17.05;;;12.40;;
25213;SDS011;13160;51.834;4.706;2022-08-19T09:24:53;20.08;;;12.85;;
25213;SDS011;13160;51.834;4.706;2022-08-19T09:27:23;20.17;;;12.40;;
25213;SDS011;13160;51.834;4.706;2022-08-19T09:30:14;17.52;;;12.15;;
25213;SDS011;13160;51.834;4.706;2022-08-19T09:32:45;19.65;;;12.15;;
25213;SDS011;13160;51.834;4.706;2022-08-19T09:35:21;18.10;;;12.95;;
25213;SDS011;13160;51.834;4.706;2022-08-19T09:37:54;19.73;;;11.70;;
25213;SDS011;13160;51.834;4.706;2022-08-19T09:40:26;16.73;;;11.82;;
25213;SDS011;13160;51.834;4.706;2022-08-19T09:42:58;15.23;;;12.50;;
25213;SDS011;13160;51.834;4.706;2022-08-19T09:45:36;20.00;;;13.57;;
25213;SDS011;13160;51.834;4.706;2022-08-19T09:48:04;15.82;;;11.30;;
25213;SDS011;13160;51.834;4.706;2022-08-19T09:50:35;17.15;;;11.52;;
25213;SDS011;13160;51.834;4.706;2022-08-19T09:53:17;18.73;;;11.10;;
25213;SDS011;13160;51.834;4.706;2022-08-19T09:55:52;16.48;;;10.68;;
25213;SDS011;13160;51.834;4.706;2022-08-19T09:58:22;17.33;;;11.65;;
25213;SDS011;13160;51.834;4.706;2022-08-19T10:00:53;17.65;;;13.35;;
25213;SDS011;13160;51.834;4.706;2022-08-19T10:03:22;14.48;;;11.43;;
25213;SDS011;13160;51.834;4.706;2022-08-19T10:05:56;17.85;;;12.80;;
25213;SDS011;13160;51.834;4.706;2022-08-19T10:08:26;18.83;;;12.77;;
25213;SDS011;13160;51.834;4.706;2022-08-19T10:10:59;17.63;;;11.27;;
25213;SDS011;13160;51.834;4.706;2022-08-19T10:13:48;14.45;;;10.55;;
25213;SDS011;13160;51.834;4.706;2022-08-19T10:16:17;14.82;;;9.25;;
25213;SDS011;13160;51.834;4.706;2022-08-19T10:18:54;12.52;;;9.30;;
25213;SDS011;13160;51.834;4.706;2022-08-19T10:21:25;11.57;;;8.60;;
25213;SDS011;13160;51.834;4.706;2022-08-19T10:23:58;12.18;;;8.48;;
25213;SDS011;13160;51.834;4.706;2022-08-19T10:26:31;14.30;;;9.02;;
25213;SDS011;13160;51.834;4.706;2022-08-19T10:29:04;11.40;;;7.03;;
25213;SDS011;13160;51.834;4.706;2022-08-19T10:31:34;12.75;;;8.27;;
25213;SDS011;13160;51.834;4.706;2022-08-19T10:34:23;11.18;;;7.65;;
25213;SDS011;13160;51.834;4.706;2022-08-19T10:36:54;12.50;;;8.32;;
25213;SDS011;13160;51.834;4.706;2022-08-19T10:39:27;10.60;;;7.15;;
25213;SDS011;13160;51.834;4.706;2022-08-19T10:42:07;13.50;;;6.60;;
25213;SDS011;13160;51.834;4.706;2022-08-19T10:44:39;10.02;;;6.97;;
25213;SDS011;13160;51.834;4.706;2022-08-19T10:47:07;11.50;;;7.10;;
25213;SDS011;13160;51.834;4.706;2022-08-19T10:49:50;18.30;;;12.10;;
25213;SDS011;13160;51.834;4.706;2022-08-19T10:52:37;16.52;;;13.90;;
25213;SDS011;13160;51.834;4.706;2022-08-19T10:55:15;14.50;;;12.82;;
25213;SDS011;13160;51.834;4.706;2022-08-19T10:58:06;13.38;;;11.15;;
25213;SDS011;13160;51.834;4.706;2022-08-19T11:00:39;15.73;;;10.80;;
25213;SDS011;13160;51.834;4.706;2022-08-19T11:03:09;13.70;;;10.05;;
25213;SDS011;13160;51.834;4.706;2022-08-19T11:05:37;12.95;;;9.70;;
25213;SDS011;13160;51.834;4.706;2022-08-19T11:08:07;10.77;;;9.25;;
25213;SDS011;13160;51.834;4.706;2022-08-19T11:10:48;11.52;;;8.90;;
25213;SDS011;13160;51.834;4.706;2022-08-19T11:13:21;10.50;;;8.18;;
25213;SDS011;13160;51.834;4.706;2022-08-19T11:15:57;10.50;;;8.40;;
25213;SDS011;13160;51.834;4.706;2022-08-19T11:18:33;10.65;;;7.63;;
25213;SDS011;13160;51.834;4.706;2022-08-19T11:21:12;8.60;;;6.53;;
25213;SDS011;13160;51.834;4.706;2022-08-19T11:23:43;11.02;;;7.50;;
25213;SDS011;13160;51.834;4.706;2022-08-19T11:26:13;9.25;;;6.25;;
25213;SDS011;13160;51.834;4.706;2022-08-19T11:28:43;6.78;;;5.72;;
25213;SDS011;13160;51.834;4.706;2022-08-19T11:31:14;12.63;;;7.00;;
25213;SDS011;13160;51.834;4.706;2022-08-19T11:33:44;9.90;;;7.18;;
25213;SDS011;13160;51.834;4.706;2022-08-19T11:36:13;9.82;;;8.10;;
25213;SDS011;13160;51.834;4.706;2022-08-19T11:38:43;11.80;;;7.57;;
25213;SDS011;13160;51.834;4.706;2022-08-19T11:41:15;11.55;;;8.90;;
25213;SDS011;13160;51.834;4.706;2022-08-19T11:43:46;11.68;;;8.88;;
25213;SDS011;13160;51.834;4.706;2022-08-19T11:46:15;10.55;;;8.82;;
25213;SDS011;13160;51.834;4.706;2022-08-19T11:48:44;10.40;;;8.88;;
25213;SDS011;13160;51.834;4.706;2022-08-19T11:51:15;10.75;;;7.53;;
25213;SDS011;13160;51.834;4.706;2022-08-19T11:53:47;9.52;;;7.78;;
25213;SDS011;13160;51.834;4.706;2022-08-19T11:56:17;9.77;;;8.00;;
25213;SDS011;13160;51.834;4.706;2022-08-19T11:58:47;14.73;;;9.15;;
25213;SDS011;13160;51.834;4.706;2022-08-19T12:01:16;9.38;;;7.95;;
25213;SDS011;13160;51.834;4.706;2022-08-19T12:03:47;9.68;;;6.72;;
25213;SDS011;13160;51.834;4.706;2022-08-19T12:06:19;10.38;;;8.43;;
25213;SDS011;13160;51.834;4.706;2022-08-19T12:08:51;11.95;;;8.18;;
25213;SDS011;13160;51.834;4.706;2022-08-19T12:11:20;10.10;;;7.50;;
25213;SDS011;13160;51.834;4.706;2022-08-19T12:13:50;10.82;;;8.93;;
25213;SDS011;13160;51.834;4.706;2022-08-19T12:16:20;9.15;;;7.70;;
25213;SDS011;13160;51.834;4.706;2022-08-19T12:18:54;12.07;;;8.30;;
25213;SDS011;13160;51.834;4.706;2022-08-19T12:21:26;11.70;;;9.00;;
25213;SDS011;13160;51.834;4.706;2022-08-19T12:23:56;11.25;;;7.38;;
25213;SDS011;13160;51.834;4.706;2022-08-19T12:26:28;10.02;;;7.97;;
25213;SDS011;13160;51.834;4.706;2022-08-19T12:28:59;12.52;;;10.27;;
25213;SDS011;13160;51.834;4.706;2022-08-19T12:31:28;10.02;;;8.85;;
25213;SDS011;13160;51.834;4.706;2022-08-19T12:33:56;10.23;;;8.88;;
25213;SDS011;13160;51.834;4.706;2022-08-19T12:36:29;9.82;;;8.63;;
25213;SDS011;13160;51.834;4.706;2022-08-19T12:39:02;10.40;;;8.80;;
25213;SDS011;13160;51.834;4.706;2022-08-19T12:41:36;11.35;;;8.85;;
25213;SDS011;13160;51.834;4.706;2022-08-19T12:44:25;10.52;;;9.40;;
25213;SDS011;13160;51.834;4.706;2022-08-19T12:46:59;11.95;;;8.77;;
25213;SDS011;13160;51.834;4.706;2022-08-19T12:49:33;11.07;;;8.75;;
25213;SDS011;13160;51.834;4.706;2022-08-19T12:52:20;12.13;;;10.35;;
25213;SDS011;13160;51.834;4.706;2022-08-19T12:54:50;12.32;;;10.50;;
25213;SDS011;13160;51.834;4.706;2022-08-19T12:57:20;12.57;;;9.63;;
25213;SDS011;13160;51.834;4.706;2022-08-19T13:00:00;13.05;;;10.85;;
25213;SDS011;13160;51.834;4.706;2022-08-19T13:02:36;14.43;;;9.98;;
25213;SDS011;13160;51.834;4.706;2022-08-19T13:05:05;9.30;;;7.95;;
25213;SDS011;13160;51.834;4.706;2022-08-19T13:07:38;9.80;;;8.23;;
25213;SDS011;13160;51.834;4.706;2022-08-19T13:10:09;10.20;;;8.93;;
25213;SDS011;13160;51.834;4.706;2022-08-19T13:12:40;12.07;;;9.52;;
25213;SDS011;13160;51.834;4.706;2022-08-19T13:15:11;13.68;;;9.63;;
25213;SDS011;13160;51.834;4.706;2022-08-19T13:17:44;14.30;;;10.77;;
25213;SDS011;13160;51.834;4.706;2022-08-19T13:20:15;12.23;;;10.07;;
25213;SDS011;13160;51.834;4.706;2022-08-19T13:22:46;14.50;;;11.13;;
25213;SDS011;13160;51.834;4.706;2022-08-19T13:25:16;14.20;;;11.65;;
25213;SDS011;13160;51.834;4.706;2022-08-19T13:27:46;15.00;;;10.70;;
25213;SDS011;13160;51.834;4.706;2022-08-19T13:30:19;15.88;;;11.52;;
25213;SDS011;13160;51.834;4.706;2022-08-19T13:33:06;13.48;;;9.75;;
25213;SDS011;13160;51.834;4.706;2022-08-19T13:35:41;12.35;;;9.18;;
25213;SDS011;13160;51.834;4.706;2022-08-19T13:38:14;12.32;;;9.32;;
25213;SDS011;13160;51.834;4.706;2022-08-19T13:40:45;13.18;;;10.57;;
25213;SDS011;13160;51.834;4.706;2022-08-19T13:43:13;13.15;;;10.75;;
25213;SDS011;13160;51.834;4.706;2022-08-19T13:45:50;14.15;;;10.90;;
25213;SDS011;13160;51.834;4.706;2022-08-19T13:48:22;15.80;;;11.50;;
25213;SDS011;13160;51.834;4.706;2022-08-19T13:50:53;16.35;;;11.52;;
25213;SDS011;13160;51.834;4.706;2022-08-19T13:53:21;15.40;;;12.73;;
25213;SDS011;13160;51.834;4.706;2022-08-19T13:55:50;16.10;;;12.43;;
25213;SDS011;13160;51.834;4.706;2022-08-19T13:58:20;17.10;;;13.45;;
25213;SDS011;13160;51.834;4.706;2022-08-19T14:00:50;17.70;;;14.20;;
25213;SDS011;13160;51.834;4.706;2022-08-19T14:03:18;17.13;;;13.85;;
25213;SDS011;13160;51.834;4.706;2022-08-19T14:05:47;16.13;;;13.18;;
25213;SDS011;13160;51.834;4.706;2022-08-19T14:08:15;14.93;;;12.75;;
25213;SDS011;13160;51.834;4.706;2022-08-19T14:10:45;14.13;;;11.32;;
25213;SDS011;13160;51.834;4.706;2022-08-19T14:13:15;9.73;;;8.30;;
25213;SDS011;13160;51.834;4.706;2022-08-19T14:15:46;10.32;;;8.10;;
25213;SDS011;13160;51.834;4.706;2022-08-19T14:18:17;8.63;;;6.68;;
25213;SDS011;13160;51.834;4.706;2022-08-19T14:20:46;9.05;;;6.78;;
25213;SDS011;13160;51.834;4.706;2022-08-19T14:23:14;9.45;;;7.32;;
25213;SDS011;13160;51.834;4.706;2022-08-19T14:25:43;13.55;;;8.05;;
25213;SDS011;13160;51.834;4.706;2022-08-19T14:28:12;11.63;;;7.18;;
25213;SDS011;13160;51.834;4.706;2022-08-19T14:30:41;10.23;;;7.47;;
25213;SDS011;13160;51.834;4.706;2022-08-19T14:33:10;9.13;;;6.93;;
25213;SDS011;13160;51.834;4.706;2022-08-19T14:35:41;8.95;;;6.30;;
25213;SDS011;13160;51.834;4.706;2022-08-19T14:38:14;8.38;;;6.45;;
25213;SDS011;13160;51.834;4.706;2022-08-19T14:41:05;8.88;;;6.10;;
25213;SDS011;13160;51.834;4.706;2022-08-19T14:43:39;9.70;;;6.53;;
25213;SDS011;13160;51.834;4.706;2022-08-19T14:46:08;10.38;;;6.78;;
25213;SDS011;13160;51.834;4.706;2022-08-19T14:48:42;10.25;;;6.57;;
25213;SDS011;13160;51.834;4.706;2022-08-19T14:51:12;8.65;;;6.50;;
25213;SDS011;13160;51.834;4.706;2022-08-19T14:53:41;10.15;;;6.38;;
25213;SDS011;13160;51.834;4.706;2022-08-19T14:56:11;10.98;;;5.40;;
25213;SDS011;13160;51.834;4.706;2022-08-19T14:58:42;8.80;;;4.90;;